sensor_id;sensor_type;location;lat;lon;timestamp;P1;durP1;ratioP1;P2;durP2;ratioP2
13267;SDS011;6702;47.068;15.458;2023-04-24T00:00:02;5.40;;;5.00;;
13267;SDS011;6702;47.068;15.458;2023-04-24T00:03:07;7.73;;;5.50;;
13267;SDS011;6702;47.068;15.458;2023-04-24T00:06:11;5.67;;;5.17;;
13267;SDS011;6702;47.068;15.458;2023-04-24T00:09:14;5.80;;;4.93;;
13267;SDS011;6702;47.068;15.458;2023-04-24T00:12:19;5.70;;;5.30;;
13267;SDS011;6702;47.068;15.458;2023-04-24T00:15:22;5.77;;;5.27;;
13267;SDS011;6702;47.068;15.458;2023-04-24T00:18:26;5.20;;;4.77;;
13267;SDS011;6702;47.068;15.458;2023-04-24T00:21:29;5.07;;;4.67;;
13267;SDS011;6702;47.068;15.458;2023-04-24T00:24:33;4.30;;;4.00;;
13267;SDS011;6702;47.068;15.458;2023-04-24T00:27:38;4.97;;;4.57;;
13267;SDS011;6702;47.068;15.458;2023-04-24T00:30:41;4.70;;;4.40;;
13267;SDS011;6702;47.068;15.458;2023-04-24T00:33:44;5.10;;;4.70;;
13267;SDS011;6702;47.068;15.458;2023-04-24T00:36:47;5.80;;;5.20;;
13267;SDS011;6702;47.068;15.458;2023-04-24T00:39:53;4.60;;;4.30;;
13267;SDS011;6702;47.068;15.458;2023-04-24T00:42:57;4.30;;;4.00;;
13267;SDS011;6702;47.068;15.458;2023-04-24T00:46:01;4.33;;;4.03;;
13267;SDS011;6702;47.068;15.458;2023-04-24T00:49:04;4.77;;;4.47;;
13267;SDS011;6702;47.068;15.458;2023-04-24T00:52:07;4.77;;;4.20;;
13267;SDS011;6702;47.068;15.458;2023-04-24T00:55:12;4.17;;;3.80;;
13267;SDS011;6702;47.068;15.458;2023-04-24T00:58:16;4.67;;;4.27;;
13267;SDS011;6702;47.068;15.458;2023-04-24T01:01:19;4.93;;;4.57;;
13267;SDS011;6702;47.068;15.458;2023-04-24T01:04:24;5.13;;;4.73;;
13267;SDS011;6702;47.068;15.458;2023-04-24T01:07:28;4.53;;;4.13;;
13267;SDS011;6702;47.068;15.458;2023-04-24T01:10:32;4.90;;;4.50;;
13267;SDS011;6702;47.068;15.458;2023-04-24T01:13:38;4.87;;;4.50;;
13267;SDS011;6702;47.068;15.458;2023-04-24T01:16:42;5.10;;;4.80;;
13267;SDS011;6702;47.068;15.458;2023-04-24T01:19:45;4.43;;;4.13;;
13267;SDS011;6702;47.068;15.458;2023-04-24T01:22:50;4.27;;;3.97;;
13267;SDS011;6702;47.068;15.458;2023-04-24T01:25:54;5.00;;;4.63;;
13267;SDS011;6702;47.068;15.458;2023-04-24T01:28:57;4.87;;;4.50;;
13267;SDS011;6702;47.068;15.458;2023-04-24T01:32:00;4.93;;;4.43;;
13267;SDS011;6702;47.068;15.458;2023-04-24T01:35:05;5.80;;;5.37;;
13267;SDS011;6702;47.068;15.458;2023-04-24T01:38:11;5.23;;;4.83;;
13267;SDS011;6702;47.068;15.458;2023-04-24T01:41:14;6.23;;;5.70;;
13267;SDS011;6702;47.068;15.458;2023-04-24T01:44:17;6.77;;;4.97;;
13267;SDS011;6702;47.068;15.458;2023-04-24T01:47:21;5.33;;;4.93;;
13267;SDS011;6702;47.068;15.458;2023-04-24T01:50:24;7.10;;;5.37;;
13267;SDS011;6702;47.068;15.458;2023-04-24T01:53:29;6.80;;;5.60;;
13267;SDS011;6702;47.068;15.458;2023-04-24T01:56:33;5.87;;;5.37;;
13267;SDS011;6702;47.068;15.458;2023-04-24T01:59:37;5.17;;;4.77;;
13267;SDS011;6702;47.068;15.458;2023-04-24T02:02:40;5.43;;;4.93;;
13267;SDS011;6702;47.068;15.458;2023-04-24T02:05:47;5.83;;;5.00;;
13267;SDS011;6702;47.068;15.458;2023-04-24T02:08:52;5.43;;;5.03;;
13267;SDS011;6702;47.068;15.458;2023-04-24T02:11:55;5.00;;;4.50;;
13267;SDS011;6702;47.068;15.458;2023-04-24T02:14:58;7.10;;;5.10;;
13267;SDS011;6702;47.068;15.458;2023-04-24T02:18:02;6.53;;;5.90;;
13267;SDS011;6702;47.068;15.458;2023-04-24T02:21:05;5.97;;;4.70;;
13267;SDS011;6702;47.068;15.458;2023-04-24T02:24:09;6.37;;;5.93;;
13267;SDS011;6702;47.068;15.458;2023-04-24T02:27:13;5.80;;;5.27;;
13267;SDS011;6702;47.068;15.458;2023-04-24T02:30:16;6.20;;;5.60;;
13267;SDS011;6702;47.068;15.458;2023-04-24T02:33:19;7.13;;;6.43;;
13267;SDS011;6702;47.068;15.458;2023-04-24T02:36:22;7.40;;;5.70;;
13267;SDS011;6702;47.068;15.458;2023-04-24T02:39:27;6.50;;;5.50;;
13267;SDS011;6702;47.068;15.458;2023-04-24T02:42:30;5.93;;;5.43;;
13267;SDS011;6702;47.068;15.458;2023-04-24T02:45:33;5.40;;;4.90;;
13267;SDS011;6702;47.068;15.458;2023-04-24T02:48:36;5.67;;;5.17;;
13267;SDS011;6702;47.068;15.458;2023-04-24T02:51:39;7.70;;;6.40;;
13267;SDS011;6702;47.068;15.458;2023-04-24T02:54:44;5.33;;;4.83;;
13267;SDS011;6702;47.068;15.458;2023-04-24T02:57:47;5.53;;;5.03;;
13267;SDS011;6702;47.068;15.458;2023-04-24T03:00:53;5.20;;;4.60;;
13267;SDS011;6702;47.068;15.458;2023-04-24T03:03:57;5.70;;;5.20;;
13267;SDS011;6702;47.068;15.458;2023-04-24T03:07:01;5.97;;;5.47;;
13267;SDS011;6702;47.068;15.458;2023-04-24T03:10:06;5.03;;;4.53;;
13267;SDS011;6702;47.068;15.458;2023-04-24T03:13:10;5.93;;;5.33;;
13267;SDS011;6702;47.068;15.458;2023-04-24T03:16:13;5.97;;;5.20;;
13267;SDS011;6702;47.068;15.458;2023-04-24T03:19:16;5.93;;;5.33;;
13267;SDS011;6702;47.068;15.458;2023-04-24T03:22:19;6.07;;;5.40;;
13267;SDS011;6702;47.068;15.458;2023-04-24T03:25:24;7.93;;;5.60;;
13267;SDS011;6702;47.068;15.458;2023-04-24T03:28:27;6.07;;;5.50;;
13267;SDS011;6702;47.068;15.458;2023-04-24T03:31:30;6.97;;;5.80;;
13267;SDS011;6702;47.068;15.458;2023-04-24T03:34:33;6.57;;;5.20;;
13267;SDS011;6702;47.068;15.458;2023-04-24T03:37:36;6.27;;;5.57;;
13267;SDS011;6702;47.068;15.458;2023-04-24T03:40:41;7.30;;;6.23;;
13267;SDS011;6702;47.068;15.458;2023-04-24T03:43:44;6.40;;;5.90;;
13267;SDS011;6702;47.068;15.458;2023-04-24T03:46:47;6.30;;;5.70;;
13267;SDS011;6702;47.068;15.458;2023-04-24T03:49:50;8.53;;;6.93;;
13267;SDS011;6702;47.068;15.458;2023-04-24T03:52:55;6.60;;;5.97;;
13267;SDS011;6702;47.068;15.458;2023-04-24T03:55:59;6.87;;;6.20;;
13267;SDS011;6702;47.068;15.458;2023-04-24T03:59:03;7.83;;;6.10;;
13267;SDS011;6702;47.068;15.458;2023-04-24T04:02:06;6.57;;;5.83;;
13267;SDS011;6702;47.068;15.458;2023-04-24T04:05:09;5.53;;;5.00;;
13267;SDS011;6702;47.068;15.458;2023-04-24T04:08:15;6.47;;;5.87;;
13267;SDS011;6702;47.068;15.458;2023-04-24T04:11:21;7.40;;;5.90;;
13267;SDS011;6702;47.068;15.458;2023-04-24T04:14:24;9.23;;;6.70;;
13267;SDS011;6702;47.068;15.458;2023-04-24T04:17:27;7.33;;;6.63;;
13267;SDS011;6702;47.068;15.458;2023-04-24T04:20:31;8.83;;;6.00;;
13267;SDS011;6702;47.068;15.458;2023-04-24T04:23:34;6.03;;;5.53;;
13267;SDS011;6702;47.068;15.458;2023-04-24T04:26:38;7.10;;;5.97;;
13267;SDS011;6702;47.068;15.458;2023-04-24T04:29:41;9.20;;;6.77;;
13267;SDS011;6702;47.068;15.458;2023-04-24T04:32:45;6.70;;;5.30;;
13267;SDS011;6702;47.068;15.458;2023-04-24T04:35:48;6.50;;;5.90;;
13267;SDS011;6702;47.068;15.458;2023-04-24T04:38:53;7.90;;;7.07;;
13267;SDS011;6702;47.068;15.458;2023-04-24T04:41:57;8.50;;;5.83;;
13267;SDS011;6702;47.068;15.458;2023-04-24T04:45:01;6.93;;;6.27;;
13267;SDS011;6702;47.068;15.458;2023-04-24T04:48:05;6.63;;;5.93;;
13267;SDS011;6702;47.068;15.458;2023-04-24T04:51:08;6.53;;;5.83;;
13267;SDS011;6702;47.068;15.458;2023-04-24T04:54:11;9.93;;;6.53;;
13267;SDS011;6702;47.068;15.458;2023-04-24T04:57:16;6.50;;;5.87;;
13267;SDS011;6702;47.068;15.458;2023-04-24T05:00:19;6.73;;;5.67;;
13267;SDS011;6702;47.068;15.458;2023-04-24T05:03:22;6.00;;;5.53;;
13267;SDS011;6702;47.068;15.458;2023-04-24T05:06:26;11.23;;;7.10;;
13267;SDS011;6702;47.068;15.458;2023-04-24T05:09:29;7.47;;;6.87;;
13267;SDS011;6702;47.068;15.458;2023-04-24T05:12:34;7.17;;;6.57;;
13267;SDS011;6702;47.068;15.458;2023-04-24T05:15:37;8.80;;;6.50;;
13267;SDS011;6702;47.068;15.458;2023-04-24T05:18:40;7.50;;;6.33;;
13267;SDS011;6702;47.068;15.458;2023-04-24T05:21:43;7.40;;;6.70;;
13267;SDS011;6702;47.068;15.458;2023-04-24T05:24:49;15.50;;;6.87;;
13267;SDS011;6702;47.068;15.458;2023-04-24T05:27:53;9.73;;;7.10;;
13267;SDS011;6702;47.068;15.458;2023-04-24T05:30:57;7.70;;;6.90;;
13267;SDS011;6702;47.068;15.458;2023-04-24T05:34:00;9.00;;;7.10;;
13267;SDS011;6702;47.068;15.458;2023-04-24T05:37:04;8.97;;;7.03;;
13267;SDS011;6702;47.068;15.458;2023-04-24T05:40:10;9.57;;;7.53;;
13267;SDS011;6702;47.068;15.458;2023-04-24T05:43:14;9.27;;;8.00;;
13267;SDS011;6702;47.068;15.458;2023-04-24T05:46:17;9.27;;;7.40;;
13267;SDS011;6702;47.068;15.458;2023-04-24T05:49:21;9.37;;;8.47;;
13267;SDS011;6702;47.068;15.458;2023-04-24T05:52:24;10.70;;;8.17;;
13267;SDS011;6702;47.068;15.458;2023-04-24T05:55:27;9.97;;;8.17;;
13267;SDS011;6702;47.068;15.458;2023-04-24T05:58:32;9.73;;;8.83;;
13267;SDS011;6702;47.068;15.458;2023-04-24T06:01:35;9.43;;;8.60;;
13267;SDS011;6702;47.068;15.458;2023-04-24T06:04:38;9.60;;;8.70;;
13267;SDS011;6702;47.068;15.458;2023-04-24T06:07:41;10.57;;;8.63;;
13267;SDS011;6702;47.068;15.458;2023-04-24T06:10:45;10.17;;;8.73;;
13267;SDS011;6702;47.068;15.458;2023-04-24T06:13:49;11.27;;;9.80;;
13267;SDS011;6702;47.068;15.458;2023-04-24T06:16:53;9.10;;;8.30;;
13267;SDS011;6702;47.068;15.458;2023-04-24T06:19:56;8.00;;;7.20;;
13267;SDS011;6702;47.068;15.458;2023-04-24T06:22:59;9.30;;;8.40;;
13267;SDS011;6702;47.068;15.458;2023-04-24T06:26:02;9.83;;;8.13;;
13267;SDS011;6702;47.068;15.458;2023-04-24T06:29:07;9.90;;;8.40;;
13267;SDS011;6702;47.068;15.458;2023-04-24T06:32:11;7.87;;;7.17;;
13267;SDS011;6702;47.068;15.458;2023-04-24T06:35:14;8.77;;;7.97;;
13267;SDS011;6702;47.068;15.458;2023-04-24T06:38:17;8.60;;;7.80;;
13267;SDS011;6702;47.068;15.458;2023-04-24T06:41:21;8.23;;;7.40;;
13267;SDS011;6702;47.068;15.458;2023-04-24T06:44:25;9.67;;;8.77;;
13267;SDS011;6702;47.068;15.458;2023-04-24T06:47:28;8.80;;;8.00;;
13267;SDS011;6702;47.068;15.458;2023-04-24T06:50:32;8.63;;;7.63;;
13267;SDS011;6702;47.068;15.458;2023-04-24T06:53:35;9.73;;;7.10;;
13267;SDS011;6702;47.068;15.458;2023-04-24T06:56:38;9.80;;;8.03;;
13267;SDS011;6702;47.068;15.458;2023-04-24T06:59:43;8.13;;;7.03;;
13267;SDS011;6702;47.068;15.458;2023-04-24T07:02:46;9.23;;;8.03;;
13267;SDS011;6702;47.068;15.458;2023-04-24T07:05:49;12.40;;;7.93;;
13267;SDS011;6702;47.068;15.458;2023-04-24T07:08:53;9.13;;;8.40;;
13267;SDS011;6702;47.068;15.458;2023-04-24T07:11:57;9.00;;;8.13;;
13267;SDS011;6702;47.068;15.458;2023-04-24T07:15:02;9.67;;;8.67;;
13267;SDS011;6702;47.068;15.458;2023-04-24T07:18:06;11.53;;;8.90;;
13267;SDS011;6702;47.068;15.458;2023-04-24T07:21:09;9.97;;;9.00;;
13267;SDS011;6702;47.068;15.458;2023-04-24T07:24:13;10.80;;;9.80;;
13267;SDS011;6702;47.068;15.458;2023-04-24T07:27:16;9.97;;;8.97;;
13267;SDS011;6702;47.068;15.458;2023-04-24T07:30:21;12.73;;;10.60;;
13267;SDS011;6702;47.068;15.458;2023-04-24T07:33:24;12.43;;;11.30;;
13267;SDS011;6702;47.068;15.458;2023-04-24T07:36:27;12.20;;;11.00;;
13267;SDS011;6702;47.068;15.458;2023-04-24T07:39:30;11.87;;;10.80;;
13267;SDS011;6702;47.068;15.458;2023-04-24T07:42:33;12.37;;;11.17;;
13267;SDS011;6702;47.068;15.458;2023-04-24T07:45:39;13.43;;;12.13;;
13267;SDS011;6702;47.068;15.458;2023-04-24T07:48:42;12.30;;;11.03;;
13267;SDS011;6702;47.068;15.458;2023-04-24T07:51:45;15.57;;;11.87;;
13267;SDS011;6702;47.068;15.458;2023-04-24T07:54:48;13.30;;;11.90;;
13267;SDS011;6702;47.068;15.458;2023-04-24T07:57:53;19.20;;;12.40;;
13267;SDS011;6702;47.068;15.458;2023-04-24T08:00:58;12.43;;;11.33;;
13267;SDS011;6702;47.068;15.458;2023-04-24T08:04:01;13.17;;;11.87;;
13267;SDS011;6702;47.068;15.458;2023-04-24T08:07:05;14.37;;;12.87;;
13267;SDS011;6702;47.068;15.458;2023-04-24T08:10:09;15.50;;;13.10;;
13267;SDS011;6702;47.068;15.458;2023-04-24T08:13:13;13.20;;;11.60;;
13267;SDS011;6702;47.068;15.458;2023-04-24T08:16:17;14.83;;;13.07;;
13267;SDS011;6702;47.068;15.458;2023-04-24T08:19:20;14.50;;;13.00;;
13267;SDS011;6702;47.068;15.458;2023-04-24T08:22:24;15.47;;;13.20;;
13267;SDS011;6702;47.068;15.458;2023-04-24T08:25:27;14.80;;;13.43;;
13267;SDS011;6702;47.068;15.458;2023-04-24T08:28:30;11.10;;;9.80;;
13267;SDS011;6702;47.068;15.458;2023-04-24T08:31:35;12.97;;;11.00;;
13267;SDS011;6702;47.068;15.458;2023-04-24T08:34:38;9.67;;;8.77;;
13267;SDS011;6702;47.068;15.458;2023-04-24T08:37:41;11.30;;;10.13;;
13267;SDS011;6702;47.068;15.458;2023-04-24T08:40:45;10.83;;;9.73;;
13267;SDS011;6702;47.068;15.458;2023-04-24T08:43:50;11.67;;;9.43;;
13267;SDS011;6702;47.068;15.458;2023-04-24T08:46:55;9.60;;;8.70;;
13267;SDS011;6702;47.068;15.458;2023-04-24T08:49:59;10.93;;;9.80;;
13267;SDS011;6702;47.068;15.458;2023-04-24T08:53:04;13.43;;;11.40;;
13267;SDS011;6702;47.068;15.458;2023-04-24T08:56:09;13.53;;;12.13;;
13267;SDS011;6702;47.068;15.458;2023-04-24T08:59:13;12.77;;;11.00;;
13267;SDS011;6702;47.068;15.458;2023-04-24T09:02:19;10.40;;;9.00;;
13267;SDS011;6702;47.068;15.458;2023-04-24T09:05:23;9.97;;;8.77;;
13267;SDS011;6702;47.068;15.458;2023-04-24T09:08:28;9.00;;;8.10;;
13267;SDS011;6702;47.068;15.458;2023-04-24T09:11:34;8.00;;;7.20;;
13267;SDS011;6702;47.068;15.458;2023-04-24T09:14:37;7.90;;;7.10;;
13267;SDS011;6702;47.068;15.458;2023-04-24T09:17:45;7.83;;;7.13;;
13267;SDS011;6702;47.068;15.458;2023-04-24T09:20:57;8.47;;;7.67;;
13267;SDS011;6702;47.068;15.458;2023-04-24T09:24:02;7.80;;;7.10;;
13267;SDS011;6702;47.068;15.458;2023-04-24T09:27:07;7.80;;;6.97;;
13267;SDS011;6702;47.068;15.458;2023-04-24T09:30:13;7.57;;;6.60;;
13267;SDS011;6702;47.068;15.458;2023-04-24T09:33:24;7.20;;;6.60;;
13267;SDS011;6702;47.068;15.458;2023-04-24T09:36:27;6.53;;;5.80;;
13267;SDS011;6702;47.068;15.458;2023-04-24T09:39:33;5.17;;;4.70;;
13267;SDS011;6702;47.068;15.458;2023-04-24T09:42:36;5.70;;;4.53;;
13267;SDS011;6702;47.068;15.458;2023-04-24T09:45:39;4.90;;;4.43;;
13267;SDS011;6702;47.068;15.458;2023-04-24T09:48:44;6.00;;;5.50;;
13267;SDS011;6702;47.068;15.458;2023-04-24T09:51:47;4.27;;;3.87;;
13267;SDS011;6702;47.068;15.458;2023-04-24T09:54:52;4.33;;;3.93;;
13267;SDS011;6702;47.068;15.458;2023-04-24T09:57:56;4.20;;;3.60;;
13267;SDS011;6702;47.068;15.458;2023-04-24T10:01:01;4.43;;;4.13;;
13267;SDS011;6702;47.068;15.458;2023-04-24T10:04:06;4.53;;;4.13;;
13267;SDS011;6702;47.068;15.458;2023-04-24T10:07:17;2.67;;;2.47;;
13267;SDS011;6702;47.068;15.458;2023-04-24T10:10:20;3.13;;;2.40;;
13267;SDS011;6702;47.068;15.458;2023-04-24T10:13:24;2.67;;;2.23;;
13267;SDS011;6702;47.068;15.458;2023-04-24T10:16:27;3.00;;;2.37;;
13267;SDS011;6702;47.068;15.458;2023-04-24T10:19:33;2.50;;;2.23;;
13267;SDS011;6702;47.068;15.458;2023-04-24T10:22:38;3.57;;;2.57;;
13267;SDS011;6702;47.068;15.458;2023-04-24T10:25:42;2.53;;;2.30;;
13267;SDS011;6702;47.068;15.458;2023-04-24T10:28:45;3.90;;;2.20;;
13267;SDS011;6702;47.068;15.458;2023-04-24T10:31:49;2.87;;;2.67;;
13267;SDS011;6702;47.068;15.458;2023-04-24T10:34:54;2.63;;;1.80;;
13267;SDS011;6702;47.068;15.458;2023-04-24T10:37:59;2.30;;;2.10;;
13267;SDS011;6702;47.068;15.458;2023-04-24T10:41:08;3.47;;;3.13;;
13267;SDS011;6702;47.068;15.458;2023-04-24T10:44:20;2.60;;;2.40;;
13267;SDS011;6702;47.068;15.458;2023-04-24T10:47:25;1.90;;;1.80;;
13267;SDS011;6702;47.068;15.458;2023-04-24T10:50:30;2.90;;;2.50;;
13267;SDS011;6702;47.068;15.458;2023-04-24T10:53:45;9.90;;;9.30;;
13267;SDS011;6702;47.068;15.458;2023-04-24T10:56:49;4.33;;;4.00;;
13267;SDS011;6702;47.068;15.458;2023-04-24T11:03:25;4.93;;;4.27;;
13267;SDS011;6702;47.068;15.458;2023-04-24T11:06:33;3.57;;;3.37;;
13267;SDS011;6702;47.068;15.458;2023-04-24T11:09:37;2.60;;;2.40;;
13267;SDS011;6702;47.068;15.458;2023-04-24T11:12:41;3.23;;;2.93;;
13267;SDS011;6702;47.068;15.458;2023-04-24T11:15:46;2.90;;;1.90;;
13267;SDS011;6702;47.068;15.458;2023-04-24T11:19:21;2.27;;;1.83;;
13267;SDS011;6702;47.068;15.458;2023-04-24T11:22:27;1.77;;;1.63;;
13267;SDS011;6702;47.068;15.458;2023-04-24T11:25:33;1.37;;;1.23;;
13267;SDS011;6702;47.068;15.458;2023-04-24T11:28:37;3.10;;;1.80;;
13267;SDS011;6702;47.068;15.458;2023-04-24T11:31:47;1.43;;;1.33;;
13267;SDS011;6702;47.068;15.458;2023-04-24T11:34:53;1.93;;;1.37;;
13267;SDS011;6702;47.068;15.458;2023-04-24T11:37:59;1.77;;;1.47;;
13267;SDS011;6702;47.068;15.458;2023-04-24T11:41:24;1.93;;;1.83;;
13267;SDS011;6702;47.068;15.458;2023-04-24T11:44:28;1.30;;;1.17;;
13267;SDS011;6702;47.068;15.458;2023-04-24T11:47:33;1.40;;;0.90;;
13267;SDS011;6702;47.068;15.458;2023-04-24T11:50:36;3.70;;;1.13;;
13267;SDS011;6702;47.068;15.458;2023-04-24T11:53:41;1.40;;;1.30;;
13267;SDS011;6702;47.068;15.458;2023-04-24T11:56:46;0.73;;;0.73;;
13267;SDS011;6702;47.068;15.458;2023-04-24T11:59:49;1.20;;;1.00;;
13267;SDS011;6702;47.068;15.458;2023-04-24T12:03:02;0.97;;;0.90;;
13267;SDS011;6702;47.068;15.458;2023-04-24T12:06:08;0.83;;;0.83;;
13267;SDS011;6702;47.068;15.458;2023-04-24T12:09:14;2.53;;;0.90;;
13267;SDS011;6702;47.068;15.458;2023-04-24T12:12:19;1.47;;;1.30;;
13267;SDS011;6702;47.068;15.458;2023-04-24T12:15:22;1.20;;;0.87;;
13267;SDS011;6702;47.068;15.458;2023-04-24T12:18:26;4.50;;;1.33;;
13267;SDS011;6702;47.068;15.458;2023-04-24T12:21:29;1.47;;;1.00;;
13267;SDS011;6702;47.068;15.458;2023-04-24T12:24:34;0.67;;;0.60;;
13267;SDS011;6702;47.068;15.458;2023-04-24T12:27:37;2.70;;;0.80;;
13267;SDS011;6702;47.068;15.458;2023-04-24T12:30:41;1.63;;;0.80;;
13267;SDS011;6702;47.068;15.458;2023-04-24T12:33:46;1.00;;;0.77;;
13267;SDS011;6702;47.068;15.458;2023-04-24T12:36:49;0.70;;;0.70;;
13267;SDS011;6702;47.068;15.458;2023-04-24T12:40:01;0.83;;;0.70;;
13267;SDS011;6702;47.068;15.458;2023-04-24T12:43:12;1.73;;;0.60;;
13267;SDS011;6702;47.068;15.458;2023-04-24T12:46:16;0.80;;;0.60;;
13267;SDS011;6702;47.068;15.458;2023-04-24T12:49:22;1.83;;;0.87;;
13267;SDS011;6702;47.068;15.458;2023-04-24T12:52:26;2.57;;;1.03;;
13267;SDS011;6702;47.068;15.458;2023-04-24T12:55:32;1.40;;;1.07;;
13267;SDS011;6702;47.068;15.458;2023-04-24T12:58:35;0.73;;;0.73;;
13267;SDS011;6702;47.068;15.458;2023-04-24T13:01:38;1.13;;;1.00;;
13267;SDS011;6702;47.068;15.458;2023-04-24T13:04:41;1.53;;;0.80;;
13267;SDS011;6702;47.068;15.458;2023-04-24T13:07:44;2.00;;;0.80;;
13267;SDS011;6702;47.068;15.458;2023-04-24T13:10:49;0.80;;;0.70;;
13267;SDS011;6702;47.068;15.458;2023-04-24T13:13:53;1.20;;;1.10;;
13267;SDS011;6702;47.068;15.458;2023-04-24T13:16:56;0.97;;;0.70;;
13267;SDS011;6702;47.068;15.458;2023-04-24T13:19:59;0.70;;;0.53;;
13267;SDS011;6702;47.068;15.458;2023-04-24T13:23:03;0.73;;;0.73;;
13267;SDS011;6702;47.068;15.458;2023-04-24T13:26:08;1.53;;;1.43;;
13267;SDS011;6702;47.068;15.458;2023-04-24T13:29:11;2.00;;;1.30;;
13267;SDS011;6702;47.068;15.458;2023-04-24T13:32:15;2.40;;;1.37;;
13267;SDS011;6702;47.068;15.458;2023-04-24T13:35:18;1.20;;;0.80;;
13267;SDS011;6702;47.068;15.458;2023-04-24T13:38:21;2.57;;;0.80;;
13267;SDS011;6702;47.068;15.458;2023-04-24T13:41:26;1.27;;;1.17;;
13267;SDS011;6702;47.068;15.458;2023-04-24T13:44:29;1.07;;;0.70;;
13267;SDS011;6702;47.068;15.458;2023-04-24T13:47:32;2.90;;;0.70;;
13267;SDS011;6702;47.068;15.458;2023-04-24T13:50:35;1.10;;;1.00;;
13267;SDS011;6702;47.068;15.458;2023-04-24T13:53:38;27.70;;;16.87;;
13267;SDS011;6702;47.068;15.458;2023-04-24T13:56:43;4.20;;;3.70;;
13267;SDS011;6702;47.068;15.458;2023-04-24T13:59:46;2.10;;;1.37;;
13267;SDS011;6702;47.068;15.458;2023-04-24T14:02:49;1.50;;;0.90;;
13267;SDS011;6702;47.068;15.458;2023-04-24T14:05:53;1.30;;;1.20;;
13267;SDS011;6702;47.068;15.458;2023-04-24T14:08:56;3.73;;;3.43;;
13267;SDS011;6702;47.068;15.458;2023-04-24T14:12:01;2.23;;;1.93;;
13267;SDS011;6702;47.068;15.458;2023-04-24T14:15:05;4.53;;;2.90;;
13267;SDS011;6702;47.068;15.458;2023-04-24T14:18:09;1.53;;;1.43;;
13267;SDS011;6702;47.068;15.458;2023-04-24T14:21:13;3.33;;;1.20;;
13267;SDS011;6702;47.068;15.458;2023-04-24T14:24:18;0.73;;;0.73;;
13267;SDS011;6702;47.068;15.458;2023-04-24T14:27:22;2.63;;;1.37;;
13267;SDS011;6702;47.068;15.458;2023-04-24T14:30:26;2.10;;;0.90;;
13267;SDS011;6702;47.068;15.458;2023-04-24T14:33:29;6.60;;;6.17;;
13267;SDS011;6702;47.068;15.458;2023-04-24T14:36:32;1.90;;;1.80;;
13267;SDS011;6702;47.068;15.458;2023-04-24T14:39:36;1.87;;;1.30;;
13267;SDS011;6702;47.068;15.458;2023-04-24T14:42:41;3.33;;;1.53;;
13267;SDS011;6702;47.068;15.458;2023-04-24T14:45:44;1.40;;;1.30;;
13267;SDS011;6702;47.068;15.458;2023-04-24T14:48:47;1.33;;;1.23;;
13267;SDS011;6702;47.068;15.458;2023-04-24T14:51:52;1.00;;;0.90;;
13267;SDS011;6702;47.068;15.458;2023-04-24T14:54:55;2.10;;;2.00;;
13267;SDS011;6702;47.068;15.458;2023-04-24T14:58:00;1.10;;;1.00;;
13267;SDS011;6702;47.068;15.458;2023-04-24T15:01:03;2.50;;;1.13;;
13267;SDS011;6702;47.068;15.458;2023-04-24T15:04:06;2.90;;;1.50;;
13267;SDS011;6702;47.068;15.458;2023-04-24T15:07:10;2.40;;;1.33;;
13267;SDS011;6702;47.068;15.458;2023-04-24T15:10:13;2.07;;;1.40;;
13267;SDS011;6702;47.068;15.458;2023-04-24T15:13:20;1.87;;;1.33;;
13267;SDS011;6702;47.068;15.458;2023-04-24T15:16:23;1.30;;;1.20;;
13267;SDS011;6702;47.068;15.458;2023-04-24T15:19:26;1.30;;;1.20;;
13267;SDS011;6702;47.068;15.458;2023-04-24T15:22:29;1.40;;;1.30;;
13267;SDS011;6702;47.068;15.458;2023-04-24T15:25:32;1.60;;;1.50;;
13267;SDS011;6702;47.068;15.458;2023-04-24T15:28:37;1.27;;;1.17;;
13267;SDS011;6702;47.068;15.458;2023-04-24T15:31:40;1.80;;;1.70;;
13267;SDS011;6702;47.068;15.458;2023-04-24T15:34:43;1.83;;;1.37;;
13267;SDS011;6702;47.068;15.458;2023-04-24T15:37:49;0.97;;;0.90;;
13267;SDS011;6702;47.068;15.458;2023-04-24T15:40:52;1.53;;;1.43;;
13267;SDS011;6702;47.068;15.458;2023-04-24T15:43:57;2.03;;;1.87;;
13267;SDS011;6702;47.068;15.458;2023-04-24T15:47:00;1.93;;;1.57;;
13267;SDS011;6702;47.068;15.458;2023-04-24T15:50:04;4.00;;;3.10;;
13267;SDS011;6702;47.068;15.458;2023-04-24T15:53:12;1.73;;;1.50;;
13267;SDS011;6702;47.068;15.458;2023-04-24T15:56:22;1.30;;;1.20;;
13267;SDS011;6702;47.068;15.458;2023-04-24T15:59:27;1.40;;;1.00;;
13267;SDS011;6702;47.068;15.458;2023-04-24T16:02:31;1.30;;;1.20;;
13267;SDS011;6702;47.068;15.458;2023-04-24T16:05:36;1.70;;;1.40;;
13267;SDS011;6702;47.068;15.458;2023-04-24T16:08:39;1.20;;;0.93;;
13267;SDS011;6702;47.068;15.458;2023-04-24T16:11:43;1.33;;;0.93;;
13267;SDS011;6702;47.068;15.458;2023-04-24T16:14:48;1.60;;;1.40;;
13267;SDS011;6702;47.068;15.458;2023-04-24T16:17:51;1.80;;;1.30;;
13267;SDS011;6702;47.068;15.458;2023-04-24T16:20:54;3.97;;;2.97;;
13267;SDS011;6702;47.068;15.458;2023-04-24T16:23:58;1.53;;;1.20;;
13267;SDS011;6702;47.068;15.458;2023-04-24T16:27:01;1.30;;;1.20;;
13267;SDS011;6702;47.068;15.458;2023-04-24T16:30:07;1.53;;;1.37;;
13267;SDS011;6702;47.068;15.458;2023-04-24T16:33:10;1.33;;;1.23;;
13267;SDS011;6702;47.068;15.458;2023-04-24T16:36:14;1.97;;;1.47;;
13267;SDS011;6702;47.068;15.458;2023-04-24T16:39:20;3.43;;;2.87;;
13267;SDS011;6702;47.068;15.458;2023-04-24T16:42:23;2.33;;;1.60;;
13267;SDS011;6702;47.068;15.458;2023-04-24T16:45:28;3.90;;;3.23;;
13267;SDS011;6702;47.068;15.458;2023-04-24T16:48:32;3.13;;;2.43;;
13267;SDS011;6702;47.068;15.458;2023-04-24T16:51:35;2.07;;;1.63;;
13267;SDS011;6702;47.068;15.458;2023-04-24T16:54:38;2.20;;;2.00;;
13267;SDS011;6702;47.068;15.458;2023-04-24T16:57:42;2.30;;;2.20;;
13267;SDS011;6702;47.068;15.458;2023-04-24T17:00:47;2.20;;;2.00;;
13267;SDS011;6702;47.068;15.458;2023-04-24T17:03:51;4.30;;;2.20;;
13267;SDS011;6702;47.068;15.458;2023-04-24T17:06:56;2.90;;;2.40;;
13267;SDS011;6702;47.068;15.458;2023-04-24T17:10:00;2.90;;;2.27;;
13267;SDS011;6702;47.068;15.458;2023-04-24T17:13:04;2.60;;;2.40;;
13267;SDS011;6702;47.068;15.458;2023-04-24T17:16:11;3.40;;;2.70;;
13267;SDS011;6702;47.068;15.458;2023-04-24T17:19:15;3.43;;;2.60;;
13267;SDS011;6702;47.068;15.458;2023-04-24T17:22:20;5.03;;;2.63;;
13267;SDS011;6702;47.068;15.458;2023-04-24T17:25:23;3.27;;;2.97;;
13267;SDS011;6702;47.068;15.458;2023-04-24T17:28:29;4.13;;;3.10;;
13267;SDS011;6702;47.068;15.458;2023-04-24T17:31:35;3.10;;;2.63;;
13267;SDS011;6702;47.068;15.458;2023-04-24T17:34:38;2.80;;;2.60;;
13267;SDS011;6702;47.068;15.458;2023-04-24T17:37:43;3.77;;;2.27;;
13267;SDS011;6702;47.068;15.458;2023-04-24T17:40:47;2.30;;;1.87;;
13267;SDS011;6702;47.068;15.458;2023-04-24T17:43:53;2.00;;;1.60;;
13267;SDS011;6702;47.068;15.458;2023-04-24T17:46:58;1.73;;;1.63;;
13267;SDS011;6702;47.068;15.458;2023-04-24T17:50:02;2.80;;;1.80;;
13267;SDS011;6702;47.068;15.458;2023-04-24T17:53:07;3.10;;;2.40;;
13267;SDS011;6702;47.068;15.458;2023-04-24T17:56:12;3.57;;;2.97;;
13267;SDS011;6702;47.068;15.458;2023-04-24T17:59:15;4.03;;;3.20;;
13267;SDS011;6702;47.068;15.458;2023-04-24T18:02:20;3.23;;;3.03;;
13267;SDS011;6702;47.068;15.458;2023-04-24T18:05:24;3.77;;;3.37;;
13267;SDS011;6702;47.068;15.458;2023-04-24T18:08:28;3.97;;;3.40;;
13267;SDS011;6702;47.068;15.458;2023-04-24T18:11:32;3.10;;;2.80;;
13267;SDS011;6702;47.068;15.458;2023-04-24T18:14:36;3.20;;;2.90;;
13267;SDS011;6702;47.068;15.458;2023-04-24T18:17:41;3.13;;;2.63;;
13267;SDS011;6702;47.068;15.458;2023-04-24T18:20:45;3.47;;;3.27;;
13267;SDS011;6702;47.068;15.458;2023-04-24T18:23:49;6.80;;;5.10;;
13267;SDS011;6702;47.068;15.458;2023-04-24T18:26:52;4.97;;;4.67;;
13267;SDS011;6702;47.068;15.458;2023-04-24T18:30:00;3.67;;;3.40;;